Time;durP1;ratioP1;P1;durP2;ratioP2;P2;SDS_P1;SDS_P2;PMS_P1;PMS_P2;Temp;Humidity;BMP_temperature;BMP_pressure;BME280_temperature;BME280_humidity;BME280_pressure;Samples;Min_cycle;Max_cycle;Signal;HPM_P1;HPM_P2
2023/06/22 00:00:44;;;;;;;13.05;6.95;;;27.40;54.60;;;;;;5032370;28;20522;-72
2023/06/22 00:03:10;;;;;;;14.20;7.28;;;27.30;54.60;;;;;;5032302;28;20114;-73
2023/06/22 00:05:36;;;;;;;10.82;6.70;;;27.30;54.50;;;;;;5032242;28;20497;-73
2023/06/22 00:08:04;;;;;;;13.25;7.30;;;27.20;54.50;;;;;;5032218;28;20057;-72
2023/06/22 00:10:30;;;;;;;14.30;7.20;;;27.20;55.00;;;;;;5032037;28;20057;-72
2023/06/22 00:12:56;;;;;;;12.73;7.13;;;27.10;54.80;;;;;;5032158;28;20040;-72
2023/06/22 00:15:22;;;;;;;13.80;7.90;;;27.10;55.10;;;;;;5032117;28;20056;-73
2023/06/22 00:17:47;;;;;;;12.68;7.07;;;27.00;55.30;;;;;;5032249;28;20045;-72
2023/06/22 00:20:14;;;;;;;13.20;6.57;;;27.00;55.50;;;;;;5031999;28;20029;-72
2023/06/22 00:22:39;;;;;;;14.60;7.72;;;27.00;55.60;;;;;;5032077;28;20105;-71
2023/06/22 00:25:09;;;;;;;13.63;7.28;;;27.00;55.80;;;;;;5032253;28;20057;-73
2023/06/22 00:27:35;;;;;;;15.65;7.70;;;27.00;55.90;;;;;;5031780;28;20034;-72
2023/06/22 00:30:01;;;;;;;14.20;8.18;;;27.00;56.10;;;;;;5031486;28;20039;-72
2023/06/22 00:32:27;;;;;;;16.15;7.57;;;26.90;56.10;;;;;;5031696;28;20037;-71
2023/06/22 00:34:52;;;;;;;12.35;8.02;;;26.90;56.40;;;;;;5031814;28;20513;-72
2023/06/22 00:37:18;;;;;;;14.65;8.02;;;26.90;56.50;;;;;;5031803;28;20104;-72
2023/06/22 00:39:44;;;;;;;11.90;7.72;;;26.90;56.60;;;;;;5031858;28;20069;-72
2023/06/22 00:42:09;;;;;;;14.07;8.07;;;26.80;56.70;;;;;;5031601;28;20079;-72
2023/06/22 00:44:36;;;;;;;13.60;7.80;;;26.80;56.90;;;;;;5031715;28;20061;-71
2023/06/22 00:47:03;;;;;;;15.63;7.57;;;26.80;57.70;;;;;;5031757;28;20415;-71
2023/06/22 00:49:29;;;;;;;14.82;7.68;;;26.60;57.70;;;;;;5031333;28;20124;-72
2023/06/22 00:51:57;;;;;;;15.77;7.38;;;26.70;57.90;;;;;;5031610;28;20107;-71
2023/06/22 00:54:24;;;;;;;15.15;7.13;;;26.60;57.00;;;;;;5033190;28;20037;-72
2023/06/22 00:56:59;;;;;;;12.07;6.80;;;26.60;57.30;;;;;;5035330;28;20037;-71
2023/06/22 00:59:26;;;;;;;13.88;7.25;;;26.60;57.30;;;;;;5035684;28;20033;-72
2023/06/22 01:01:52;;;;;;;12.95;7.90;;;26.60;58.10;;;;;;5035612;28;20037;-71
2023/06/22 01:04:18;;;;;;;11.32;6.97;;;26.60;57.80;;;;;;5035660;28;20088;-72
2023/06/22 01:07:07;;;;;;;17.15;7.05;;;26.60;57.70;;;;;;5035776;28;20030;-71
2023/06/22 01:09:41;;;;;;;12.75;7.40;;;26.60;58.10;;;;;;5035607;28;20045;-72
2023/06/22 01:12:08;;;;;;;12.65;7.32;;;26.60;58.00;;;;;;5035436;28;20030;-72
2023/06/22 01:14:37;;;;;;;14.90;7.22;;;26.50;58.00;;;;;;5035972;28;20038;-72
2023/06/22 01:17:07;;;;;;;13.35;7.43;;;26.50;58.30;;;;;;5035608;28;20033;-72
2023/06/22 01:19:52;;;;;;;11.32;7.32;;;26.50;58.30;;;;;;5035461;28;20025;-72
2023/06/22 01:22:20;;;;;;;21.05;10.50;;;26.50;58.60;;;;;;5035474;28;20061;-72
2023/06/22 01:24:48;;;;;;;16.92;8.27;;;26.50;58.80;;;;;;5035027;28;20048;-73
2023/06/22 01:27:29;;;;;;;12.18;7.30;;;26.50;59.20;;;;;;5017160;28;20109;-72
2023/06/22 01:30:00;;;;;;;11.98;7.07;;;26.50;59.10;;;;;;5034957;28;20065;-72
2023/06/22 01:32:32;;;;;;;12.02;7.13;;;26.50;59.00;;;;;;5034969;28;20041;-70
2023/06/22 01:35:01;;;;;;;14.82;7.57;;;26.50;59.10;;;;;;5034955;28;20372;-71
2023/06/22 01:37:28;;;;;;;15.43;8.15;;;26.40;59.40;;;;;;5035041;28;20104;-72
2023/06/22 01:39:55;;;;;;;9.25;6.82;;;26.40;59.60;;;;;;5034842;28;20399;-71
2023/06/22 01:42:23;;;;;;;17.13;7.55;;;26.30;59.90;;;;;;5035021;28;20030;-71
2023/06/22 01:44:50;;;;;;;15.95;7.93;;;26.20;60.40;;;;;;5034542;28;20053;-72
2023/06/22 01:47:17;;;;;;;11.85;6.90;;;26.20;60.70;;;;;;5034909;28;20033;-72
2023/06/22 01:49:43;;;;;;;15.75;8.35;;;26.20;60.50;;;;;;5034547;28;20120;-72
2023/06/22 01:52:09;;;;;;;11.40;7.18;;;26.10;60.90;;;;;;5034842;28;20540;-72
2023/06/22 01:54:35;;;;;;;11.07;7.05;;;26.10;61.00;;;;;;5016729;28;20120;-72
2023/06/22 01:57:01;;;;;;;13.05;7.38;;;26.10;61.10;;;;;;5034567;28;20164;-72
2023/06/22 01:59:35;;;;;;;16.95;8.57;;;26.00;61.10;;;;;;5034609;28;20040;-71
2023/06/22 02:02:09;;;;;;;16.08;7.30;;;25.90;61.30;;;;;;5034194;28;20033;-72
2023/06/22 02:04:46;;;;;;;14.55;7.25;;;25.90;61.60;;;;;;5034433;28;20104;-71
2023/06/22 02:07:16;;;;;;;12.88;7.75;;;25.90;61.80;;;;;;5034102;28;20037;-72
2023/06/22 02:09:45;;;;;;;14.32;7.35;;;25.90;61.50;;;;;;5034286;28;20520;-71
2023/06/22 02:12:13;;;;;;;13.00;8.10;;;25.80;61.60;;;;;;5034194;28;20025;-72
2023/06/22 02:14:39;;;;;;;14.60;7.72;;;25.80;61.80;;;;;;5034056;28;20083;-71
2023/06/22 02:17:07;;;;;;;9.38;6.82;;;25.80;61.80;;;;;;5033830;28;20109;-72
2023/06/22 02:19:36;;;;;;;11.43;7.50;;;25.80;61.80;;;;;;5034199;28;20061;-72
2023/06/22 02:22:02;;;;;;;14.02;7.40;;;25.80;61.90;;;;;;5034143;28;20378;-72
2023/06/22 02:24:30;;;;;;;11.93;7.68;;;25.80;61.80;;;;;;5033949;28;20076;-71
2023/06/22 02:26:57;;;;;;;14.32;7.50;;;25.80;62.70;;;;;;5033776;28;20048;-72
2023/06/22 02:29:23;;;;;;;13.85;7.75;;;25.80;62.20;;;;;;5033498;28;20220;-72
2023/06/22 02:31:49;;;;;;;16.90;8.30;;;25.80;62.20;;;;;;5033910;28;20109;-73
2023/06/22 02:34:18;;;;;;;14.07;7.78;;;25.70;62.20;;;;;;5034049;28;20489;-72
2023/06/22 02:36:50;;;;;;;23.98;8.27;;;25.70;62.50;;;;;;5034212;28;20483;-72
2023/06/22 02:39:22;;;;;;;11.90;6.90;;;25.70;62.40;;;;;;5033379;28;20073;-71
2023/06/22 02:41:48;;;;;;;11.90;7.70;;;25.60;62.60;;;;;;5033662;28;20026;-72
2023/06/22 02:44:15;;;;;;;18.38;7.82;;;25.50;62.60;;;;;;5033352;28;20053;-72
2023/06/22 02:46:41;;;;;;;14.73;8.00;;;25.50;62.70;;;;;;5033499;28;20427;-72
2023/06/22 02:49:06;;;;;;;11.45;7.40;;;25.50;62.70;;;;;;5033518;28;20077;-71
2023/06/22 02:51:35;;;;;;;10.82;7.00;;;25.50;62.70;;;;;;5033529;28;20029;-71
2023/06/22 02:54:01;;;;;;;12.35;6.88;;;25.40;63.00;;;;;;5033342;28;20073;-72
2023/06/22 02:56:30;;;;;;;17.52;7.05;;;25.40;62.90;;;;;;5033319;28;20344;-71
2023/06/22 02:59:00;;;;;;;13.15;8.27;;;25.40;62.70;;;;;;5033635;28;20073;-71
2023/06/22 03:01:27;;;;;;;12.63;7.45;;;25.40;62.60;;;;;;5033488;28;20118;-71
2023/06/22 03:03:54;;;;;;;9.43;6.82;;;25.40;62.80;;;;;;5035358;28;20037;-71
2023/06/22 03:06:23;;;;;;;17.52;7.45;;;25.50;62.50;;;;;;5036413;28;20029;-72
2023/06/22 03:08:52;;;;;;;15.13;7.25;;;25.40;62.40;;;;;;5016059;28;20046;-72
2023/06/22 03:11:17;;;;;;;16.40;7.38;;;25.30;62.50;;;;;;5033148;28;20037;-72
2023/06/22 03:13:43;;;;;;;11.73;7.47;;;25.30;62.50;;;;;;5033162;28;20095;-72
2023/06/22 03:16:10;;;;;;;13.63;7.15;;;25.30;62.60;;;;;;5033271;28;20040;-72
2023/06/22 03:18:35;;;;;;;12.00;7.38;;;25.30;62.60;;;;;;5032604;28;20029;-71
2023/06/22 03:21:02;;;;;;;11.07;6.50;;;25.30;62.70;;;;;;5033047;28;20033;-71
2023/06/22 03:23:27;;;;;;;10.60;6.63;;;25.30;62.70;;;;;;5032628;28;20065;-72
2023/06/22 03:25:55;;;;;;;11.32;6.50;;;25.30;62.80;;;;;;5032952;28;20064;-72
2023/06/22 03:28:21;;;;;;;13.50;7.65;;;25.30;62.70;;;;;;5015252;28;20107;-72
2023/06/22 03:30:47;;;;;;;17.42;6.45;;;25.20;62.90;;;;;;5032995;28;20132;-71
2023/06/22 03:33:13;;;;;;;12.02;6.90;;;25.20;63.00;;;;;;5033246;28;20072;-72
2023/06/22 03:35:39;;;;;;;14.75;7.13;;;25.20;63.00;;;;;;5032782;28;20128;-71
2023/06/22 03:38:04;;;;;;;11.23;7.05;;;25.20;63.00;;;;;;5032613;28;20037;-72
2023/06/22 03:40:30;;;;;;;14.27;6.32;;;25.30;62.70;;;;;;5032338;28;20041;-71
2023/06/22 03:42:56;;;;;;;14.30;6.70;;;25.30;62.50;;;;;;5032487;28;20038;-71
2023/06/22 03:45:21;;;;;;;13.82;5.90;;;25.20;62.80;;;;;;5032593;28;20587;-72
2023/06/22 03:47:47;;;;;;;12.98;6.75;;;25.20;62.60;;;;;;5032583;28;20033;-71
2023/06/22 03:50:14;;;;;;;12.63;6.90;;;25.20;62.80;;;;;;5032337;28;20037;-71
2023/06/22 03:52:40;;;;;;;12.02;6.57;;;25.20;62.90;;;;;;5032511;28;20038;-72
2023/06/22 03:55:06;;;;;;;14.43;6.53;;;25.20;63.10;;;;;;5032739;28;20028;-72
2023/06/22 03:57:32;;;;;;;12.63;6.50;;;25.10;63.20;;;;;;5032583;28;20061;-72
2023/06/22 03:59:59;;;;;;;13.98;6.63;;;25.10;62.80;;;;;;5014648;28;20057;-72
2023/06/22 04:02:25;;;;;;;11.75;6.75;;;25.10;63.10;;;;;;5032372;28;20107;-72
2023/06/22 04:04:51;;;;;;;12.15;6.93;;;25.10;62.90;;;;;;5032453;28;20039;-71
2023/06/22 04:07:17;;;;;;;13.68;7.07;;;25.10;63.20;;;;;;5032076;28;20041;-72
2023/06/22 04:09:43;;;;;;;11.63;6.43;;;25.10;63.60;;;;;;5032274;28;20046;-72
2023/06/22 04:12:09;;;;;;;15.15;6.70;;;25.00;63.60;;;;;;5032292;28;20321;-73
2023/06/22 04:14:35;;;;;;;17.77;6.82;;;25.10;63.70;;;;;;5031958;28;20033;-72
2023/06/22 04:17:01;;;;;;;14.98;6.40;;;25.00;63.50;;;;;;5032086;28;20033;-71
2023/06/22 04:19:27;;;;;;;16.33;6.53;;;25.10;63.60;;;;;;5014242;28;20036;-72
2023/06/22 04:21:53;;;;;;;11.65;6.40;;;25.10;63.60;;;;;;5032063;28;20030;-71
2023/06/22 04:24:18;;;;;;;10.77;6.65;;;25.20;63.40;;;;;;5013765;28;20041;-71
2023/06/22 04:26:46;;;;;;;15.43;7.00;;;25.20;63.20;;;;;;5031948;28;20525;-73
2023/06/22 04:29:12;;;;;;;12.27;6.57;;;25.20;63.30;;;;;;5032060;28;20041;-71
2023/06/22 04:31:38;;;;;;;16.92;6.75;;;25.30;63.00;;;;;;5031942;28;20034;-71
2023/06/22 04:34:08;;;;;;;12.63;6.50;;;25.40;62.50;;;;;;5031961;28;20112;-72
2023/06/22 04:36:38;;;;;;;15.15;6.60;;;25.50;62.50;;;;;;5031826;28;20029;-72
2023/06/22 04:39:09;;;;;;;13.05;6.43;;;25.50;62.60;;;;;;5013611;28;20120;-72
2023/06/22 04:41:42;;;;;;;10.70;5.90;;;25.50;62.00;;;;;;5032177;28;20061;-72
2023/06/22 04:44:11;;;;;;;11.85;6.45;;;25.50;61.70;;;;;;5031910;28;20049;-71
2023/06/22 04:46:40;;;;;;;16.23;6.25;;;25.60;61.80;;;;;;5031802;28;20034;-71
2023/06/22 04:49:09;;;;;;;13.65;6.60;;;25.60;62.10;;;;;;5031735;28;20053;-71
2023/06/22 04:51:40;;;;;;;12.25;6.07;;;25.60;62.20;;;;;;5031650;28;20029;-71
2023/06/22 04:54:06;;;;;;;13.07;5.85;;;25.70;61.80;;;;;;5031802;28;20034;-71
2023/06/22 04:56:33;;;;;;;16.02;6.63;;;25.70;62.50;;;;;;5031601;28;20205;-72
2023/06/22 04:58:58;;;;;;;11.82;6.60;;;25.70;62.40;;;;;;5031337;28;20401;-71
2023/06/22 05:01:25;;;;;;;14.02;6.22;;;25.80;62.30;;;;;;5031192;28;20033;-72
2023/06/22 05:03:55;;;;;;;9.35;5.88;;;25.80;61.60;;;;;;5031334;28;20037;-71
2023/06/22 05:06:24;;;;;;;13.13;6.30;;;25.80;61.60;;;;;;5031502;28;20085;-72
2023/06/22 05:08:57;;;;;;;16.40;6.43;;;25.90;62.10;;;;;;5031637;28;20046;-72
2023/06/22 05:11:26;;;;;;;12.73;6.50;;;25.90;62.30;;;;;;5031412;28;20034;-71
2023/06/22 05:13:52;;;;;;;11.60;6.90;;;26.00;62.50;;;;;;5031441;28;20045;-72
2023/06/22 05:16:23;;;;;;;12.88;6.72;;;26.00;61.70;;;;;;5032701;28;20030;-73
2023/06/22 05:18:53;;;;;;;18.02;6.63;;;26.10;61.80;;;;;;5033266;28;20045;-72
2023/06/22 05:21:23;;;;;;;15.27;6.05;;;26.10;62.10;;;;;;5013822;28;20037;-72
2023/06/22 05:23:48;;;;;;;14.05;6.13;;;26.20;61.80;;;;;;5031608;28;20037;-71
2023/06/22 05:26:14;;;;;;;13.70;6.22;;;26.30;61.20;;;;;;5031235;28;20364;-72
2023/06/22 05:28:40;;;;;;;12.00;6.45;;;26.50;60.60;;;;;;5031503;28;20041;-73
2023/06/22 05:31:06;;;;;;;12.25;6.35;;;26.60;60.50;;;;;;5031270;28;20040;-72
2023/06/22 05:33:31;;;;;;;13.43;6.32;;;26.80;60.30;;;;;;5031457;28;20516;-72
2023/06/22 05:35:57;;;;;;;17.20;6.80;;;27.00;60.10;;;;;;5031200;28;20033;-72
2023/06/22 05:38:23;;;;;;;14.73;6.45;;;27.10;59.60;;;;;;5030956;28;20048;-72
2023/06/22 05:40:49;;;;;;;11.40;6.20;;;27.30;59.70;;;;;;5031187;28;20029;-73
2023/06/22 05:43:14;;;;;;;14.02;6.50;;;27.40;59.20;;;;;;5015360;28;20045;-71
2023/06/22 05:45:40;;;;;;;15.43;6.60;;;27.50;58.70;;;;;;5034768;28;20026;-73
2023/06/22 05:48:06;;;;;;;13.55;6.05;;;27.60;58.90;;;;;;5034697;28;20388;-72
2023/06/22 05:50:32;;;;;;;13.98;6.55;;;27.80;58.60;;;;;;5034857;28;20037;-72
2023/06/22 05:52:57;;;;;;;16.27;6.60;;;27.90;58.00;;;;;;5034870;28;20029;-71
2023/06/22 05:55:23;;;;;;;16.08;9.43;;;28.00;57.80;;;;;;5034542;28;20037;-71
2023/06/22 05:57:49;;;;;;;15.10;7.93;;;28.20;56.60;;;;;;5034741;28;20104;-72
2023/06/22 06:00:15;;;;;;;14.77;6.80;;;28.40;56.50;;;;;;5034372;28;20037;-71
2023/06/22 06:02:43;;;;;;;14.43;6.32;;;28.60;56.40;;;;;;5034826;28;20057;-71
2023/06/22 06:05:15;;;;;;;14.52;5.82;;;28.70;56.50;;;;;;5023443;28;20041;-71
2023/06/22 06:07:42;;;;;;;16.45;6.30;;;28.90;56.10;;;;;;5014297;28;20030;-73
2023/06/22 06:10:09;;;;;;;13.15;6.07;;;29.00;55.90;;;;;;5014119;28;20069;-74
2023/06/22 06:12:35;;;;;;;17.33;6.57;;;29.20;55.60;;;;;;5015484;28;20112;-72
2023/06/22 06:15:01;;;;;;;17.40;7.07;;;29.40;55.40;;;;;;5031060;28;20061;-73
2023/06/22 06:17:27;;;;;;;12.75;6.35;;;29.40;54.90;;;;;;5033941;28;20029;-72
2023/06/22 06:19:53;;;;;;;19.23;7.43;;;29.50;54.60;;;;;;5033983;28;20124;-71
2023/06/22 06:22:20;;;;;;;17.58;7.22;;;29.60;54.50;;;;;;5033936;28;20033;-71
2023/06/22 06:24:47;;;;;;;13.43;6.45;;;29.80;54.30;;;;;;5033691;28;20042;-71
2023/06/22 06:27:13;;;;;;;19.48;6.65;;;29.90;54.10;;;;;;5030282;28;20425;-72
2023/06/22 06:29:39;;;;;;;13.43;6.13;;;29.90;53.70;;;;;;5014091;28;20041;-72
2023/06/22 06:32:05;;;;;;;15.73;6.13;;;30.00;53.80;;;;;;5014206;28;20505;-82
2023/06/22 06:34:31;;;;;;;17.77;7.65;;;30.00;53.30;;;;;;5015014;28;20593;-78
2023/06/22 06:36:57;;;;;;;16.10;6.75;;;30.00;53.20;;;;;;5022565;28;20116;-83
2023/06/22 06:39:22;;;;;;;23.08;6.95;;;30.00;53.00;;;;;;5020064;28;20132;-82
2023/06/22 06:41:48;;;;;;;21.20;8.30;;;30.00;52.70;;;;;;5022438;28;20406;-83
2023/06/22 06:44:14;;;;;;;20.33;11.70;;;30.20;52.50;;;;;;5016911;28;20046;-83
2023/06/22 06:46:40;;;;;;;22.65;6.95;;;30.30;52.20;;;;;;5014921;28;20104;-83
2023/06/22 06:49:05;;;;;;;19.70;6.38;;;30.40;51.90;;;;;;4999240;28;20080;-82
2023/06/22 06:51:31;;;;;;;17.83;6.30;;;30.50;51.50;;;;;;5025233;28;20041;-83
2023/06/22 06:53:57;;;;;;;18.48;7.07;;;30.60;51.50;;;;;;5033061;28;20033;-82
2023/06/22 06:56:23;;;;;;;18.00;6.85;;;30.70;51.10;;;;;;5031197;28;20033;-82
2023/06/22 06:58:51;;;;;;;15.63;6.60;;;30.90;51.00;;;;;;5034744;28;20068;-84
2023/06/22 07:01:16;;;;;;;25.63;7.45;;;30.90;51.10;;;;;;5019765;28;20052;-85
2023/06/22 07:03:42;;;;;;;20.85;6.80;;;31.10;50.80;;;;;;5020171;28;20038;-84
2023/06/22 07:06:09;;;;;;;17.70;7.10;;;31.20;50.60;;;;;;5014261;28;20029;-83
2023/06/22 07:08:36;;;;;;;13.98;6.40;;;31.30;50.20;;;;;;5014343;28;20053;-83
2023/06/22 07:11:02;;;;;;;16.58;6.95;;;31.50;50.20;;;;;;5014221;28;20062;-85
2023/06/22 07:13:28;;;;;;;22.92;7.15;;;31.60;50.00;;;;;;5014084;28;20573;-82
2023/06/22 07:15:54;;;;;;;15.45;6.95;;;31.60;50.20;;;;;;5014319;28;20479;-83
2023/06/22 07:18:19;;;;;;;17.02;6.63;;;31.70;50.10;;;;;;5014163;28;20041;-81
2023/06/22 07:20:45;;;;;;;23.77;7.05;;;31.80;49.80;;;;;;4997870;28;20466;-79
2023/06/22 07:23:11;;;;;;;22.02;7.07;;;31.80;49.80;;;;;;4996303;28;20419;-82
2023/06/22 07:25:36;;;;;;;22.38;6.80;;;31.80;49.80;;;;;;5014944;28;20084;-83
2023/06/22 07:28:04;;;;;;;21.85;7.00;;;31.90;49.90;;;;;;5030374;28;20038;-82
2023/06/22 07:30:31;;;;;;;23.15;7.82;;;31.90;49.80;;;;;;5008303;28;20037;-83
2023/06/22 07:32:58;;;;;;;22.10;7.70;;;31.90;50.00;;;;;;5015848;28;20026;-82
2023/06/22 07:35:24;;;;;;;23.08;7.78;;;32.00;50.20;;;;;;4997029;28;20038;-84
2023/06/22 07:37:50;;;;;;;33.50;11.50;;;32.10;50.10;;;;;;4996883;28;20033;-83
2023/06/22 07:40:16;;;;;;;27.48;9.15;;;32.10;49.90;;;;;;5013964;28;20040;-83
2023/06/22 07:42:41;;;;;;;25.58;8.15;;;32.20;49.80;;;;;;5020538;28;20030;-83
2023/06/22 07:45:08;;;;;;;21.05;7.63;;;32.20;49.60;;;;;;5013885;28;20068;-83
2023/06/22 07:47:35;;;;;;;27.92;7.15;;;32.20;49.60;;;;;;5014046;28;20030;-83
2023/06/22 07:50:02;;;;;;;25.38;7.10;;;32.20;50.20;;;;;;5013820;28;20096;-84
2023/06/22 07:52:29;;;;;;;25.13;8.82;;;32.10;50.20;;;;;;5014262;28;20029;-82
2023/06/22 07:54:54;;;;;;;21.40;7.82;;;32.10;50.20;;;;;;5013672;28;20030;-82
2023/06/22 07:57:21;;;;;;;25.15;8.40;;;31.90;50.00;;;;;;5013526;28;20535;-81
2023/06/22 07:59:46;;;;;;;15.32;7.35;;;31.80;50.40;;;;;;5013862;28;20408;-82
2023/06/22 08:02:12;;;;;;;20.55;7.93;;;31.70;50.40;;;;;;5013835;28;20033;-82
2023/06/22 08:04:39;;;;;;;21.52;7.97;;;31.70;50.60;;;;;;5013994;28;20030;-83
2023/06/22 08:07:05;;;;;;;16.45;7.47;;;31.80;50.60;;;;;;5013779;28;20073;-83
2023/06/22 08:09:32;;;;;;;16.55;7.00;;;31.80;50.50;;;;;;5027099;28;20514;-86
2023/06/22 08:11:58;;;;;;;18.35;7.75;;;31.70;50.70;;;;;;5035854;28;20029;-84
2023/06/22 08:14:26;;;;;;;20.23;7.80;;;31.80;50.70;;;;;;5032284;28;20033;-82
2023/06/22 08:16:51;;;;;;;19.90;7.07;;;31.80;50.30;;;;;;5024747;28;20446;-82
2023/06/22 08:19:17;;;;;;;22.58;8.25;;;31.80;50.20;;;;;;5033258;28;20029;-82
2023/06/22 08:21:43;;;;;;;20.80;7.20;;;31.80;50.40;;;;;;5034044;28;20138;-87
2023/06/22 08:24:09;;;;;;;25.45;7.65;;;31.80;50.20;;;;;;5033718;28;20037;-80
2023/06/22 08:26:37;;;;;;;16.63;6.80;;;31.80;50.20;;;;;;5008339;28;20511;-89
2023/06/22 08:29:03;;;;;;;21.05;7.10;;;31.80;50.20;;;;;;5031663;28;20087;-81
2023/06/22 08:31:34;;;;;;;16.90;6.78;;;31.80;49.90;;;;;;5035563;28;20075;-88
2023/06/22 08:34:00;;;;;;;20.13;7.40;;;31.80;49.90;;;;;;5035135;28;20025;-83
2023/06/22 08:36:30;;;;;;;34.33;8.95;;;31.80;49.70;;;;;;5014677;28;20079;-77
2023/06/22 08:39:01;;;;;;;21.63;6.55;;;31.80;49.50;;;;;;5033034;28;20407;-83
2023/06/22 08:41:27;;;;;;;27.90;7.07;;;31.90;49.50;;;;;;5047004;28;20455;-86
2023/06/22 08:43:53;;;;;;;18.77;6.55;;;31.90;49.60;;;;;;5051892;28;20042;-87
2023/06/22 08:46:23;;;;;;;18.20;7.22;;;32.00;49.80;;;;;;5023902;28;20349;-86
2023/06/22 08:48:49;;;;;;;21.15;6.25;;;32.00;49.30;;;;;;5034533;28;20075;-84
2023/06/22 08:51:14;;;;;;;26.88;8.23;;;32.00;49.40;;;;;;5032923;28;20479;-82
2023/06/22 08:53:40;;;;;;;16.27;7.60;;;31.90;49.20;;;;;;5033521;28;20045;-90
2023/06/22 08:56:06;;;;;;;19.63;8.13;;;32.00;49.10;;;;;;5033452;28;20151;-87
2023/06/22 08:58:31;;;;;;;28.48;7.78;;;31.90;48.90;;;;;;5038639;28;20041;-84
2023/06/22 09:01:00;;;;;;;18.65;6.53;;;32.00;49.30;;;;;;5035367;28;20038;-84
2023/06/22 09:03:26;;;;;;;20.63;7.25;;;32.00;49.00;;;;;;5033220;28;20128;-84
2023/06/22 09:05:52;;;;;;;19.88;6.30;;;32.10;49.00;;;;;;5034905;28;20036;-86
2023/06/22 09:08:18;;;;;;;44.58;8.65;;;32.10;48.90;;;;;;5032647;28;20411;-84
2023/06/22 09:10:44;;;;;;;18.88;6.78;;;32.00;49.30;;;;;;5031021;28;20037;-84
2023/06/22 09:13:09;;;;;;;21.67;6.90;;;32.00;49.20;;;;;;5032598;28;20495;-80
2023/06/22 09:15:35;;;;;;;17.55;6.90;;;32.00;49.50;;;;;;5032068;28;20037;-75
2023/06/22 09:18:01;;;;;;;94.95;16.13;;;32.00;49.10;;;;;;5035263;28;20045;-78
2023/06/22 09:20:26;;;;;;;32.47;8.43;;;32.10;49.90;;;;;;5035488;28;20037;-76
2023/06/22 09:22:52;;;;;;;28.05;7.03;;;32.10;49.80;;;;;;5039734;28;20024;-79
2023/06/22 09:25:20;;;;;;;18.70;6.82;;;32.00;49.50;;;;;;5035606;28;20037;-75
2023/06/22 09:27:46;;;;;;;30.85;12.18;;;32.10;48.90;;;;;;5035281;28;20079;-81
2023/06/22 09:30:12;;;;;;;14.75;8.75;;;32.10;49.40;;;;;;5035927;28;20333;-76
2023/06/22 09:32:38;;;;;;;22.77;8.90;;;32.10;48.90;;;;;;5036541;28;20067;-79
2023/06/22 09:35:06;;;;;;;26.67;9.07;;;32.20;49.00;;;;;;5040161;28;20128;-74
2023/06/22 09:37:32;;;;;;;27.88;10.43;;;32.20;50.10;;;;;;5037420;28;20045;-78
2023/06/22 09:39:57;;;;;;;36.17;12.77;;;32.20;50.60;;;;;;5020412;28;20398;-76
2023/06/22 09:42:23;;;;;;;60.03;13.48;;;32.20;51.50;;;;;;5035750;28;20403;-72
2023/06/22 09:44:49;;;;;;;33.95;10.82;;;32.10;51.60;;;;;;5034635;28;20104;-77
2023/06/22 09:47:14;;;;;;;21.27;8.73;;;32.10;50.70;;;;;;5035524;28;20037;-75
2023/06/22 09:49:40;;;;;;;21.23;9.48;;;32.10;50.00;;;;;;5035488;28;20041;-78
2023/06/22 09:52:06;;;;;;;22.35;9.25;;;32.10;50.60;;;;;;5035380;28;20037;-79
2023/06/22 09:54:32;;;;;;;17.88;8.30;;;32.10;50.10;;;;;;5035955;28;20029;-80
2023/06/22 09:56:58;;;;;;;18.40;8.23;;;32.10;49.80;;;;;;5036710;28;20092;-77
2023/06/22 09:59:23;;;;;;;20.27;8.73;;;32.10;49.80;;;;;;5034703;28;20112;-79
2023/06/22 10:01:49;;;;;;;17.67;6.40;;;32.10;48.60;;;;;;5034492;28;20082;-80
2023/06/22 10:04:15;;;;;;;16.13;6.18;;;32.20;47.00;;;;;;5037182;28;20519;-82
2023/06/22 10:06:40;;;;;;;19.38;6.88;;;32.40;46.10;;;;;;5017965;28;20042;-80
2023/06/22 10:09:07;;;;;;;15.25;6.40;;;32.50;45.40;;;;;;5035706;28;20041;-80
2023/06/22 10:11:34;;;;;;;17.27;7.00;;;32.60;44.80;;;;;;5035736;28;20039;-84
2023/06/22 10:14:01;;;;;;;20.05;7.32;;;32.70;44.80;;;;;;5037945;28;20052;-82
2023/06/22 10:16:36;;;;;;;16.52;5.88;;;32.70;44.70;;;;;;5035271;28;20395;-81
2023/06/22 10:19:02;;;;;;;17.73;6.80;;;32.80;44.10;;;;;;5035545;28;20048;-81
2023/06/22 10:21:28;;;;;;;21.35;6.45;;;32.90;43.70;;;;;;5035238;28;20108;-82
2023/06/22 10:23:55;;;;;;;12.73;5.72;;;32.90;43.70;;;;;;5035213;28;20053;-83
2023/06/22 10:26:21;;;;;;;17.92;5.85;;;33.00;43.10;;;;;;5034769;28;20041;-80
2023/06/22 10:28:46;;;;;;;11.45;5.22;;;33.10;42.80;;;;;;5035431;28;20526;-85
2023/06/22 10:31:12;;;;;;;13.18;6.43;;;33.20;42.40;;;;;;5019322;28;20030;-87
2023/06/22 10:33:38;;;;;;;18.67;7.03;;;33.20;42.00;;;;;;5018464;28;20125;-85
2023/06/22 10:36:04;;;;;;;22.88;7.63;;;33.40;42.40;;;;;;5034696;28;20060;-76
2023/06/22 10:38:30;;;;;;;16.38;6.10;;;33.30;42.40;;;;;;5034180;28;20441;-81
2023/06/22 10:40:55;;;;;;;13.98;5.50;;;33.40;41.90;;;;;;5033324;28;20127;-77
2023/06/22 10:43:21;;;;;;;10.82;4.95;;;33.40;40.80;;;;;;5032750;28;20072;-79
2023/06/22 10:45:47;;;;;;;12.32;4.70;;;33.50;40.30;;;;;;5033890;28;20104;-79
2023/06/22 10:48:12;;;;;;;9.02;4.40;;;33.60;39.60;;;;;;5034420;28;20034;-79
2023/06/22 10:50:38;;;;;;;9.93;3.72;;;33.70;38.50;;;;;;5034703;28;20044;-78
2023/06/22 10:53:04;;;;;;;13.18;4.18;;;33.70;38.10;;;;;;5033609;28;20044;-80
2023/06/22 10:55:29;;;;;;;13.73;4.10;;;33.80;37.70;;;;;;5033975;28;20557;-78
2023/06/22 10:57:55;;;;;;;7.45;3.83;;;33.90;36.90;;;;;;5034513;28;20360;-78
2023/06/22 11:00:21;;;;;;;11.02;3.67;;;33.90;36.10;;;;;;5034141;28;20068;-78
2023/06/22 11:02:47;;;;;;;13.70;3.92;;;34.00;35.30;;;;;;5034288;28;20041;-78
2023/06/22 11:05:12;;;;;;;9.80;4.63;;;34.10;35.40;;;;;;5033419;28;20037;-77
2023/06/22 11:07:42;;;;;;;12.18;4.13;;;34.20;35.70;;;;;;5033718;28;20065;-78
2023/06/22 11:10:08;;;;;;;9.25;4.40;;;34.20;35.70;;;;;;5033809;28;20096;-78
2023/06/22 11:12:34;;;;;;;10.35;3.90;;;34.30;35.60;;;;;;5034564;28;20045;-78
2023/06/22 11:14:59;;;;;;;9.65;4.10;;;34.40;35.40;;;;;;5033588;28;20401;-79
2023/06/22 11:17:25;;;;;;;10.00;4.30;;;34.40;35.50;;;;;;5033725;28;20067;-78
2023/06/22 11:19:51;;;;;;;11.45;4.82;;;34.50;35.50;;;;;;5033839;28;20032;-78
2023/06/22 11:22:16;;;;;;;15.30;4.63;;;34.60;36.20;;;;;;5033599;28;20461;-79
2023/06/22 11:24:42;;;;;;;12.57;4.88;;;34.70;36.50;;;;;;5033237;28;20151;-79
2023/06/22 11:27:08;;;;;;;8.40;4.82;;;34.80;36.90;;;;;;5033678;28;20045;-78
2023/06/22 11:29:33;;;;;;;16.73;4.93;;;34.90;37.20;;;;;;5033930;28;20081;-79
2023/06/22 11:31:59;;;;;;;8.85;3.58;;;34.90;36.70;;;;;;5033508;28;20030;-78
2023/06/22 11:34:25;;;;;;;7.43;3.25;;;35.00;35.00;;;;;;5038573;28;20036;-77
2023/06/22 11:36:50;;;;;;;8.82;3.08;;;35.10;33.90;;;;;;5048785;28;20041;-77
2023/06/22 11:39:16;;;;;;;6.13;3.50;;;35.10;32.50;;;;;;5039917;28;20084;-79
2023/06/22 11:41:42;;;;;;;8.93;3.42;;;35.20;31.90;;;;;;5033877;28;20476;-78
2023/06/22 11:44:08;;;;;;;11.35;3.58;;;35.30;32.10;;;;;;5033279;28;20440;-78
2023/06/22 11:46:34;;;;;;;9.65;3.30;;;35.30;32.60;;;;;;5033724;28;20037;-79
2023/06/22 11:49:00;;;;;;;7.80;3.60;;;35.30;32.20;;;;;;5033614;28;20450;-79
2023/06/22 11:51:26;;;;;;;9.90;3.42;;;35.40;32.20;;;;;;5033306;28;20037;-77
2023/06/22 11:53:51;;;;;;;8.77;3.30;;;35.50;31.70;;;;;;5033132;28;20041;-79
2023/06/22 11:56:17;;;;;;;10.27;3.17;;;35.50;31.80;;;;;;5033056;28;20037;-77
2023/06/22 11:58:43;;;;;;;9.02;3.78;;;35.50;32.00;;;;;;5033111;28;20033;-81
2023/06/22 12:01:08;;;;;;;11.45;3.42;;;35.60;32.10;;;;;;5033012;28;20029;-78
2023/06/22 12:03:34;;;;;;;10.27;4.00;;;35.60;32.00;;;;;;5033112;28;20036;-78
2023/06/22 12:06:00;;;;;;;9.35;3.70;;;35.70;32.10;;;;;;5033330;28;20454;-78
2023/06/22 12:08:25;;;;;;;12.38;3.60;;;35.70;31.80;;;;;;5032973;28;20049;-79
2023/06/22 12:10:51;;;;;;;10.10;3.47;;;35.70;32.00;;;;;;5032751;28;20030;-78
2023/06/22 12:13:17;;;;;;;11.38;3.88;;;35.80;32.00;;;;;;5032870;28;20451;-78
2023/06/22 12:15:43;;;;;;;10.00;3.97;;;35.90;32.10;;;;;;5032990;28;20029;-79
2023/06/22 12:18:09;;;;;;;12.95;4.10;;;35.90;32.30;;;;;;5033112;28;20025;-78
2023/06/22 12:20:34;;;;;;;8.02;3.88;;;36.00;32.50;;;;;;5032915;28;20067;-78
2023/06/22 12:23:01;;;;;;;7.43;3.65;;;36.10;32.20;;;;;;5032777;28;20041;-78
2023/06/22 12:25:27;;;;;;;13.77;4.50;;;36.10;32.00;;;;;;5032635;28;20041;-79
2023/06/22 12:27:53;;;;;;;13.02;5.18;;;36.10;33.90;;;;;;5032599;28;20475;-79
2023/06/22 12:30:19;;;;;;;9.10;5.32;;;36.20;36.10;;;;;;5033136;28;20041;-79
2023/06/22 12:32:45;;;;;;;15.20;5.85;;;36.20;38.30;;;;;;5032665;28;20395;-80
2023/06/22 12:35:13;;;;;;;13.02;6.10;;;36.10;39.90;;;;;;5033140;28;20083;-78